LHHO weather

Hajdúszoboszló Airport
Hajdúszoboszló, Hajdu-Bihar, Hungary

Public forecast

Using degrees Celsius for public forecast. Weather courtesy of forecast.io.

METAR (pilot weather report)

Closest report is Debrecen International Airport, 9.3 nm (17.2 km) E. Retrieved 2019/09/17 09:15 UTC (3 minutes ago):

LHDC 170915Z AUTO 24009KT 220V280 9999 FEW016 SCT198 21/16 Q1013 NOSIG

TAF (pilot weather forecast)

Forecast is more than 12 hours old.

Closest forecast is Debrecen International Airport, 9.3 nm (17.2 km) E. Retrieved 2018/12/01 21:12 UTC (10 months ago):

TAF TAF LHDC 010000Z 3021/0106 CNL